sensor_id;sensor_type;location;lat;lon;timestamp;P1;durP1;ratioP1;P2;durP2;ratioP2
40867;SDS011;26586;50.708;22.412;2024-01-30T00:00:23;9.60;;;7.97;;
40867;SDS011;26586;50.708;22.412;2024-01-30T00:03:09;8.97;;;8.03;;
40867;SDS011;26586;50.708;22.412;2024-01-30T00:05:35;8.83;;;7.70;;
40867;SDS011;26586;50.708;22.412;2024-01-30T00:08:02;10.10;;;8.07;;
40867;SDS011;26586;50.708;22.412;2024-01-30T00:10:28;9.20;;;8.10;;
40867;SDS011;26586;50.708;22.412;2024-01-30T00:12:54;9.45;;;8.43;;
40867;SDS011;26586;50.708;22.412;2024-01-30T00:15:21;8.70;;;7.80;;
40867;SDS011;26586;50.708;22.412;2024-01-30T00:17:47;10.90;;;8.75;;
40867;SDS011;26586;50.708;22.412;2024-01-30T00:20:13;12.38;;;9.98;;
40867;SDS011;26586;50.708;22.412;2024-01-30T00:22:39;11.95;;;10.43;;
40867;SDS011;26586;50.708;22.412;2024-01-30T00:25:06;14.67;;;11.80;;
40867;SDS011;26586;50.708;22.412;2024-01-30T00:27:32;14.77;;;11.57;;
40867;SDS011;26586;50.708;22.412;2024-01-30T00:29:58;13.40;;;10.33;;
40867;SDS011;26586;50.708;22.412;2024-01-30T00:32:24;13.05;;;9.82;;
40867;SDS011;26586;50.708;22.412;2024-01-30T00:34:51;11.50;;;9.57;;
40867;SDS011;26586;50.708;22.412;2024-01-30T00:37:17;10.23;;;8.73;;
40867;SDS011;26586;50.708;22.412;2024-01-30T00:39:43;10.23;;;8.17;;
40867;SDS011;26586;50.708;22.412;2024-01-30T00:42:09;13.30;;;11.35;;
40867;SDS011;26586;50.708;22.412;2024-01-30T00:44:35;12.43;;;11.03;;
40867;SDS011;26586;50.708;22.412;2024-01-30T00:47:05;13.43;;;10.60;;
40867;SDS011;26586;50.708;22.412;2024-01-30T00:49:31;10.70;;;9.55;;
40867;SDS011;26586;50.708;22.412;2024-01-30T00:51:57;11.85;;;10.13;;
40867;SDS011;26586;50.708;22.412;2024-01-30T00:54:24;11.30;;;9.80;;
40867;SDS011;26586;50.708;22.412;2024-01-30T00:56:50;10.73;;;8.80;;
40867;SDS011;26586;50.708;22.412;2024-01-30T00:59:16;10.13;;;8.90;;
40867;SDS011;26586;50.708;22.412;2024-01-30T01:01:42;10.82;;;9.07;;
40867;SDS011;26586;50.708;22.412;2024-01-30T01:04:09;14.68;;;10.20;;
40867;SDS011;26586;50.708;22.412;2024-01-30T01:06:35;12.05;;;10.55;;
40867;SDS011;26586;50.708;22.412;2024-01-30T01:09:01;12.73;;;10.40;;
40867;SDS011;26586;50.708;22.412;2024-01-30T01:11:29;11.38;;;9.63;;
40867;SDS011;26586;50.708;22.412;2024-01-30T01:13:55;11.87;;;10.23;;
40867;SDS011;26586;50.708;22.412;2024-01-30T01:16:21;10.13;;;8.23;;
40867;SDS011;26586;50.708;22.412;2024-01-30T01:18:47;9.80;;;8.37;;
40867;SDS011;26586;50.708;22.412;2024-01-30T01:21:13;10.55;;;8.07;;
40867;SDS011;26586;50.708;22.412;2024-01-30T01:23:40;8.90;;;8.00;;
40867;SDS011;26586;50.708;22.412;2024-01-30T01:26:07;9.45;;;7.97;;
40867;SDS011;26586;50.708;22.412;2024-01-30T01:28:35;9.98;;;8.88;;
40867;SDS011;26586;50.708;22.412;2024-01-30T01:31:01;10.27;;;8.93;;
40867;SDS011;26586;50.708;22.412;2024-01-30T01:33:31;10.20;;;9.05;;
40867;SDS011;26586;50.708;22.412;2024-01-30T01:35:58;9.18;;;8.18;;
40867;SDS011;26586;50.708;22.412;2024-01-30T01:38:28;8.82;;;7.93;;
40867;SDS011;26586;50.708;22.412;2024-01-30T01:40:54;9.23;;;8.32;;
40867;SDS011;26586;50.708;22.412;2024-01-30T01:43:20;11.57;;;10.37;;
40867;SDS011;26586;50.708;22.412;2024-01-30T01:45:46;14.30;;;12.30;;
40867;SDS011;26586;50.708;22.412;2024-01-30T01:48:13;14.57;;;12.55;;
40867;SDS011;26586;50.708;22.412;2024-01-30T01:50:39;18.67;;;15.73;;
40867;SDS011;26586;50.708;22.412;2024-01-30T01:53:06;18.52;;;15.68;;
40867;SDS011;26586;50.708;22.412;2024-01-30T01:55:33;18.50;;;14.30;;
40867;SDS011;26586;50.708;22.412;2024-01-30T01:58:01;16.80;;;14.02;;
40867;SDS011;26586;50.708;22.412;2024-01-30T02:00:27;14.80;;;12.57;;
40867;SDS011;26586;50.708;22.412;2024-01-30T02:02:54;13.57;;;11.07;;
40867;SDS011;26586;50.708;22.412;2024-01-30T02:05:21;13.68;;;11.43;;
40867;SDS011;26586;50.708;22.412;2024-01-30T02:07:47;11.65;;;9.70;;
40867;SDS011;26586;50.708;22.412;2024-01-30T02:10:13;9.95;;;8.82;;
40867;SDS011;26586;50.708;22.412;2024-01-30T02:12:40;9.43;;;8.13;;
40867;SDS011;26586;50.708;22.412;2024-01-30T02:15:06;8.70;;;7.40;;
40867;SDS011;26586;50.708;22.412;2024-01-30T02:17:33;8.75;;;7.47;;
40867;SDS011;26586;50.708;22.412;2024-01-30T02:19:59;8.47;;;7.10;;
40867;SDS011;26586;50.708;22.412;2024-01-30T02:22:26;8.52;;;7.55;;
40867;SDS011;26586;50.708;22.412;2024-01-30T02:24:53;8.75;;;7.63;;
40867;SDS011;26586;50.708;22.412;2024-01-30T02:27:19;7.67;;;6.93;;
40867;SDS011;26586;50.708;22.412;2024-01-30T02:29:45;8.02;;;7.18;;
40867;SDS011;26586;50.708;22.412;2024-01-30T02:32:12;8.15;;;7.15;;
40867;SDS011;26586;50.708;22.412;2024-01-30T02:34:38;9.20;;;8.10;;
40867;SDS011;26586;50.708;22.412;2024-01-30T02:37:04;8.30;;;7.13;;
40867;SDS011;26586;50.708;22.412;2024-01-30T02:39:30;9.30;;;7.95;;
40867;SDS011;26586;50.708;22.412;2024-01-30T02:41:56;8.97;;;7.40;;
40867;SDS011;26586;50.708;22.412;2024-01-30T02:44:23;8.90;;;7.80;;
40867;SDS011;26586;50.708;22.412;2024-01-30T02:46:49;9.23;;;7.10;;
40867;SDS011;26586;50.708;22.412;2024-01-30T02:49:15;9.32;;;7.45;;
40867;SDS011;26586;50.708;22.412;2024-01-30T02:51:42;8.43;;;7.30;;
40867;SDS011;26586;50.708;22.412;2024-01-30T02:54:08;8.10;;;7.20;;
40867;SDS011;26586;50.708;22.412;2024-01-30T02:56:34;9.73;;;7.83;;
40867;SDS011;26586;50.708;22.412;2024-01-30T02:59:00;8.95;;;7.93;;
40867;SDS011;26586;50.708;22.412;2024-01-30T03:01:26;8.43;;;7.53;;
40867;SDS011;26586;50.708;22.412;2024-01-30T03:03:52;10.73;;;8.20;;
40867;SDS011;26586;50.708;22.412;2024-01-30T03:06:19;7.73;;;6.93;;
40867;SDS011;26586;50.708;22.412;2024-01-30T03:08:45;8.20;;;6.75;;
40867;SDS011;26586;50.708;22.412;2024-01-30T03:11:12;7.72;;;6.82;;
40867;SDS011;26586;50.708;22.412;2024-01-30T03:13:38;7.97;;;7.18;;
40867;SDS011;26586;50.708;22.412;2024-01-30T03:16:04;8.87;;;7.17;;
40867;SDS011;26586;50.708;22.412;2024-01-30T03:18:31;9.27;;;7.32;;
40867;SDS011;26586;50.708;22.412;2024-01-30T03:20:57;8.13;;;7.23;;
40867;SDS011;26586;50.708;22.412;2024-01-30T03:23:23;7.88;;;7.07;;
40867;SDS011;26586;50.708;22.412;2024-01-30T03:25:50;8.77;;;7.63;;
40867;SDS011;26586;50.708;22.412;2024-01-30T03:28:16;7.90;;;6.53;;
40867;SDS011;26586;50.708;22.412;2024-01-30T03:30:42;8.00;;;7.20;;
40867;SDS011;26586;50.708;22.412;2024-01-30T03:33:08;8.52;;;6.78;;
40867;SDS011;26586;50.708;22.412;2024-01-30T03:35:34;8.20;;;6.83;;
40867;SDS011;26586;50.708;22.412;2024-01-30T03:38:00;7.10;;;6.07;;
40867;SDS011;26586;50.708;22.412;2024-01-30T03:40:27;8.03;;;7.23;;
40867;SDS011;26586;50.708;22.412;2024-01-30T03:42:53;7.03;;;6.32;;
40867;SDS011;26586;50.708;22.412;2024-01-30T03:45:19;8.10;;;6.80;;
40867;SDS011;26586;50.708;22.412;2024-01-30T03:47:45;9.15;;;7.05;;
40867;SDS011;26586;50.708;22.412;2024-01-30T03:50:11;9.30;;;7.20;;
40867;SDS011;26586;50.708;22.412;2024-01-30T03:52:38;8.43;;;7.30;;
40867;SDS011;26586;50.708;22.412;2024-01-30T03:55:05;7.75;;;6.55;;
40867;SDS011;26586;50.708;22.412;2024-01-30T03:57:31;7.10;;;6.40;;
40867;SDS011;26586;50.708;22.412;2024-01-30T03:59:57;9.43;;;6.80;;
40867;SDS011;26586;50.708;22.412;2024-01-30T04:02:23;7.97;;;7.10;;
40867;SDS011;26586;50.708;22.412;2024-01-30T04:04:50;7.60;;;6.53;;
40867;SDS011;26586;50.708;22.412;2024-01-30T04:07:16;10.57;;;7.22;;
40867;SDS011;26586;50.708;22.412;2024-01-30T04:09:42;7.10;;;6.20;;
40867;SDS011;26586;50.708;22.412;2024-01-30T04:12:08;9.88;;;7.80;;
40867;SDS011;26586;50.708;22.412;2024-01-30T04:14:35;7.70;;;6.60;;
40867;SDS011;26586;50.708;22.412;2024-01-30T04:17:03;7.53;;;6.82;;
40867;SDS011;26586;50.708;22.412;2024-01-30T04:19:29;8.70;;;7.20;;
40867;SDS011;26586;50.708;22.412;2024-01-30T04:21:55;8.00;;;7.20;;
40867;SDS011;26586;50.708;22.412;2024-01-30T04:24:22;7.53;;;6.70;;
40867;SDS011;26586;50.708;22.412;2024-01-30T04:26:57;9.77;;;7.75;;
40867;SDS011;26586;50.708;22.412;2024-01-30T04:29:23;9.87;;;7.30;;
40867;SDS011;26586;50.708;22.412;2024-01-30T04:31:50;9.90;;;8.98;;
40867;SDS011;26586;50.708;22.412;2024-01-30T04:34:16;13.53;;;12.33;;
40867;SDS011;26586;50.708;22.412;2024-01-30T04:36:43;15.18;;;13.77;;
40867;SDS011;26586;50.708;22.412;2024-01-30T04:39:11;12.40;;;11.20;;
40867;SDS011;26586;50.708;22.412;2024-01-30T04:41:38;10.40;;;9.40;;
40867;SDS011;26586;50.708;22.412;2024-01-30T04:44:04;11.68;;;8.48;;
40867;SDS011;26586;50.708;22.412;2024-01-30T04:46:30;8.93;;;7.40;;
40867;SDS011;26586;50.708;22.412;2024-01-30T04:48:57;9.20;;;7.53;;
40867;SDS011;26586;50.708;22.412;2024-01-30T04:51:23;8.35;;;7.00;;
40867;SDS011;26586;50.708;22.412;2024-01-30T04:53:49;8.90;;;8.00;;
40867;SDS011;26586;50.708;22.412;2024-01-30T04:56:15;8.98;;;7.68;;
40867;SDS011;26586;50.708;22.412;2024-01-30T04:58:41;7.90;;;7.10;;
40867;SDS011;26586;50.708;22.412;2024-01-30T05:01:07;8.07;;;6.68;;
40867;SDS011;26586;50.708;22.412;2024-01-30T05:03:34;7.80;;;6.47;;
40867;SDS011;26586;50.708;22.412;2024-01-30T05:06:00;7.17;;;6.37;;
40867;SDS011;26586;50.708;22.412;2024-01-30T05:08:27;8.15;;;7.20;;
40867;SDS011;26586;50.708;22.412;2024-01-30T05:10:54;8.55;;;7.18;;
40867;SDS011;26586;50.708;22.412;2024-01-30T05:13:20;9.20;;;8.10;;
40867;SDS011;26586;50.708;22.412;2024-01-30T05:15:46;9.68;;;7.95;;
40867;SDS011;26586;50.708;22.412;2024-01-30T05:18:12;9.90;;;8.73;;
40867;SDS011;26586;50.708;22.412;2024-01-30T05:20:39;10.98;;;9.05;;
40867;SDS011;26586;50.708;22.412;2024-01-30T05:23:05;9.50;;;8.50;;
40867;SDS011;26586;50.708;22.412;2024-01-30T05:25:31;10.18;;;8.38;;
40867;SDS011;26586;50.708;22.412;2024-01-30T05:27:57;10.43;;;8.80;;
40867;SDS011;26586;50.708;22.412;2024-01-30T05:30:23;9.00;;;8.10;;
40867;SDS011;26586;50.708;22.412;2024-01-30T05:32:50;9.40;;;8.50;;
40867;SDS011;26586;50.708;22.412;2024-01-30T05:35:16;9.35;;;8.35;;
40867;SDS011;26586;50.708;22.412;2024-01-30T05:37:42;9.80;;;8.80;;
40867;SDS011;26586;50.708;22.412;2024-01-30T05:40:08;10.75;;;9.15;;
40867;SDS011;26586;50.708;22.412;2024-01-30T05:42:35;12.30;;;9.73;;
40867;SDS011;26586;50.708;22.412;2024-01-30T05:45:01;11.15;;;10.05;;
40867;SDS011;26586;50.708;22.412;2024-01-30T05:47:27;11.85;;;10.13;;
40867;SDS011;26586;50.708;22.412;2024-01-30T05:49:53;10.25;;;9.15;;
40867;SDS011;26586;50.708;22.412;2024-01-30T05:52:20;11.80;;;10.60;;
40867;SDS011;26586;50.708;22.412;2024-01-30T05:54:46;12.60;;;11.30;;
40867;SDS011;26586;50.708;22.412;2024-01-30T05:57:12;10.20;;;9.20;;
40867;SDS011;26586;50.708;22.412;2024-01-30T05:59:38;11.45;;;9.02;;
40867;SDS011;26586;50.708;22.412;2024-01-30T06:02:05;10.20;;;9.10;;
40867;SDS011;26586;50.708;22.412;2024-01-30T06:04:31;10.32;;;9.32;;
40867;SDS011;26586;50.708;22.412;2024-01-30T06:06:57;9.17;;;8.03;;
40867;SDS011;26586;50.708;22.412;2024-01-30T06:09:23;9.00;;;8.10;;
40867;SDS011;26586;50.708;22.412;2024-01-30T06:11:49;8.73;;;7.83;;
40867;SDS011;26586;50.708;22.412;2024-01-30T06:14:15;9.50;;;8.20;;
40867;SDS011;26586;50.708;22.412;2024-01-30T06:16:42;10.23;;;9.23;;
40867;SDS011;26586;50.708;22.412;2024-01-30T06:19:08;8.57;;;7.68;;
40867;SDS011;26586;50.708;22.412;2024-01-30T06:21:34;7.97;;;7.17;;
40867;SDS011;26586;50.708;22.412;2024-01-30T06:24:02;8.02;;;6.90;;
40867;SDS011;26586;50.708;22.412;2024-01-30T06:26:28;8.77;;;7.88;;
40867;SDS011;26586;50.708;22.412;2024-01-30T06:28:55;9.85;;;8.85;;
40867;SDS011;26586;50.708;22.412;2024-01-30T06:31:21;12.43;;;10.03;;
40867;SDS011;26586;50.708;22.412;2024-01-30T06:33:47;10.32;;;8.57;;
40867;SDS011;26586;50.708;22.412;2024-01-30T06:36:15;11.18;;;9.55;;
40867;SDS011;26586;50.708;22.412;2024-01-30T06:38:41;13.82;;;12.43;;
40867;SDS011;26586;50.708;22.412;2024-01-30T06:41:07;16.73;;;15.02;;
40867;SDS011;26586;50.708;22.412;2024-01-30T06:43:33;17.85;;;15.70;;
40867;SDS011;26586;50.708;22.412;2024-01-30T06:46:00;15.77;;;14.25;;
40867;SDS011;26586;50.708;22.412;2024-01-30T06:48:26;23.88;;;20.60;;
40867;SDS011;26586;50.708;22.412;2024-01-30T06:50:53;20.40;;;18.30;;
40867;SDS011;26586;50.708;22.412;2024-01-30T06:53:19;15.30;;;12.93;;
40867;SDS011;26586;50.708;22.412;2024-01-30T06:55:46;22.67;;;19.30;;
40867;SDS011;26586;50.708;22.412;2024-01-30T06:58:12;52.78;;;44.30;;
40867;SDS011;26586;50.708;22.412;2024-01-30T07:00:38;87.93;;;77.73;;
40867;SDS011;26586;50.708;22.412;2024-01-30T07:03:04;69.88;;;62.47;;
40867;SDS011;26586;50.708;22.412;2024-01-30T07:05:31;37.00;;;33.15;;
40867;SDS011;26586;50.708;22.412;2024-01-30T07:07:57;21.40;;;19.30;;
40867;SDS011;26586;50.708;22.412;2024-01-30T07:10:24;14.40;;;13.02;;
40867;SDS011;26586;50.708;22.412;2024-01-30T07:12:50;13.68;;;12.27;;
40867;SDS011;26586;50.708;22.412;2024-01-30T07:15:16;16.83;;;14.77;;
40867;SDS011;26586;50.708;22.412;2024-01-30T07:17:45;18.20;;;15.85;;
40867;SDS011;26586;50.708;22.412;2024-01-30T07:20:12;18.63;;;16.48;;
40867;SDS011;26586;50.708;22.412;2024-01-30T07:22:38;20.25;;;18.15;;
40867;SDS011;26586;50.708;22.412;2024-01-30T07:25:04;30.63;;;27.63;;
40867;SDS011;26586;50.708;22.412;2024-01-30T07:27:31;59.90;;;40.35;;
40867;SDS011;26586;50.708;22.412;2024-01-30T07:29:57;48.57;;;34.57;;
40867;SDS011;26586;50.708;22.412;2024-01-30T07:32:23;48.47;;;41.55;;
40867;SDS011;26586;50.708;22.412;2024-01-30T07:34:50;81.87;;;73.37;;
40867;SDS011;26586;50.708;22.412;2024-01-30T07:37:16;61.25;;;51.47;;
40867;SDS011;26586;50.708;22.412;2024-01-30T07:39:42;48.63;;;36.97;;
40867;SDS011;26586;50.708;22.412;2024-01-30T07:42:08;54.78;;;40.10;;
40867;SDS011;26586;50.708;22.412;2024-01-30T07:44:34;47.90;;;37.60;;
40867;SDS011;26586;50.708;22.412;2024-01-30T07:47:01;40.88;;;33.85;;
40867;SDS011;26586;50.708;22.412;2024-01-30T07:49:28;53.05;;;45.88;;
40867;SDS011;26586;50.708;22.412;2024-01-30T07:51:54;40.65;;;36.03;;
40867;SDS011;26586;50.708;22.412;2024-01-30T07:54:20;30.13;;;25.70;;
40867;SDS011;26586;50.708;22.412;2024-01-30T07:56:47;58.55;;;46.85;;
40867;SDS011;26586;50.708;22.412;2024-01-30T07:59:13;40.77;;;34.00;;
40867;SDS011;26586;50.708;22.412;2024-01-30T08:01:39;28.52;;;24.52;;
40867;SDS011;26586;50.708;22.412;2024-01-30T08:04:05;22.90;;;20.30;;
40867;SDS011;26586;50.708;22.412;2024-01-30T08:06:32;18.73;;;16.10;;
40867;SDS011;26586;50.708;22.412;2024-01-30T08:08:58;18.48;;;15.88;;
40867;SDS011;26586;50.708;22.412;2024-01-30T08:11:24;16.10;;;14.25;;
40867;SDS011;26586;50.708;22.412;2024-01-30T08:13:54;16.15;;;13.38;;
40867;SDS011;26586;50.708;22.412;2024-01-30T08:16:20;14.57;;;13.07;;
40867;SDS011;26586;50.708;22.412;2024-01-30T08:18:47;18.07;;;16.20;;
40867;SDS011;26586;50.708;22.412;2024-01-30T08:21:13;24.95;;;22.27;;
40867;SDS011;26586;50.708;22.412;2024-01-30T08:23:39;37.87;;;30.63;;
40867;SDS011;26586;50.708;22.412;2024-01-30T08:26:05;33.22;;;26.40;;
40867;SDS011;26586;50.708;22.412;2024-01-30T08:28:32;19.52;;;16.88;;
40867;SDS011;26586;50.708;22.412;2024-01-30T08:30:58;18.38;;;15.32;;
40867;SDS011;26586;50.708;22.412;2024-01-30T08:33:24;20.10;;;16.90;;
40867;SDS011;26586;50.708;22.412;2024-01-30T08:35:50;19.27;;;15.35;;
40867;SDS011;26586;50.708;22.412;2024-01-30T08:38:17;16.40;;;13.67;;
40867;SDS011;26586;50.708;22.412;2024-01-30T08:40:43;15.45;;;13.27;;
40867;SDS011;26586;50.708;22.412;2024-01-30T08:43:09;14.50;;;12.98;;
40867;SDS011;26586;50.708;22.412;2024-01-30T08:45:36;13.00;;;11.63;;
40867;SDS011;26586;50.708;22.412;2024-01-30T08:48:02;14.83;;;12.33;;
40867;SDS011;26586;50.708;22.412;2024-01-30T08:50:28;12.10;;;10.80;;
40867;SDS011;26586;50.708;22.412;2024-01-30T08:52:55;11.63;;;10.05;;
40867;SDS011;26586;50.708;22.412;2024-01-30T08:55:22;14.20;;;9.90;;
40867;SDS011;26586;50.708;22.412;2024-01-30T08:57:48;10.52;;;9.27;;
40867;SDS011;26586;50.708;22.412;2024-01-30T09:00:15;11.20;;;9.88;;
40867;SDS011;26586;50.708;22.412;2024-01-30T09:02:42;11.80;;;10.02;;
40867;SDS011;26586;50.708;22.412;2024-01-30T09:05:08;11.60;;;10.40;;
40867;SDS011;26586;50.708;22.412;2024-01-30T09:07:34;10.40;;;9.30;;
40867;SDS011;26586;50.708;22.412;2024-01-30T09:10:00;9.90;;;8.75;;
40867;SDS011;26586;50.708;22.412;2024-01-30T09:12:26;9.73;;;8.30;;
40867;SDS011;26586;50.708;22.412;2024-01-30T09:14:53;14.13;;;11.00;;
40867;SDS011;26586;50.708;22.412;2024-01-30T09:17:20;16.58;;;13.00;;
40867;SDS011;26586;50.708;22.412;2024-01-30T09:19:46;12.32;;;10.07;;
40867;SDS011;26586;50.708;22.412;2024-01-30T09:22:13;14.20;;;10.57;;
40867;SDS011;26586;50.708;22.412;2024-01-30T09:24:39;14.35;;;10.70;;
40867;SDS011;26586;50.708;22.412;2024-01-30T09:27:10;10.57;;;9.20;;
40867;SDS011;26586;50.708;22.412;2024-01-30T09:29:36;10.07;;;8.70;;
40867;SDS011;26586;50.708;22.412;2024-01-30T09:32:03;9.95;;;8.13;;
40867;SDS011;26586;50.708;22.412;2024-01-30T09:34:30;11.60;;;9.48;;
40867;SDS011;26586;50.708;22.412;2024-01-30T09:36:56;11.48;;;9.63;;
40867;SDS011;26586;50.708;22.412;2024-01-30T09:39:23;9.88;;;8.70;;
40867;SDS011;26586;50.708;22.412;2024-01-30T09:44:31;11.38;;;9.82;;
40867;SDS011;26586;50.708;22.412;2024-01-30T09:47:05;13.25;;;11.82;;
40867;SDS011;26586;50.708;22.412;2024-01-30T09:49:33;11.68;;;10.23;;
40867;SDS011;26586;50.708;22.412;2024-01-30T09:52:04;11.15;;;9.27;;
40867;SDS011;26586;50.708;22.412;2024-01-30T09:54:31;11.07;;;9.23;;
40867;SDS011;26586;50.708;22.412;2024-01-30T09:56:57;14.13;;;11.18;;
40867;SDS011;26586;50.708;22.412;2024-01-30T09:59:24;14.30;;;11.25;;
40867;SDS011;26586;50.708;22.412;2024-01-30T10:01:50;11.43;;;9.55;;
40867;SDS011;26586;50.708;22.412;2024-01-30T10:04:17;9.82;;;7.63;;
40867;SDS011;26586;50.708;22.412;2024-01-30T10:06:43;8.20;;;7.07;;
40867;SDS011;26586;50.708;22.412;2024-01-30T10:09:09;10.13;;;7.70;;
40867;SDS011;26586;50.708;22.412;2024-01-30T10:11:36;9.60;;;8.02;;
40867;SDS011;26586;50.708;22.412;2024-01-30T10:14:05;10.43;;;8.40;;
40867;SDS011;26586;50.708;22.412;2024-01-30T10:16:31;9.98;;;7.80;;
40867;SDS011;26586;50.708;22.412;2024-01-30T10:18:57;10.98;;;7.68;;
40867;SDS011;26586;50.708;22.412;2024-01-30T10:21:24;10.80;;;7.47;;
40867;SDS011;26586;50.708;22.412;2024-01-30T10:23:50;8.65;;;7.15;;
40867;SDS011;26586;50.708;22.412;2024-01-30T10:26:17;8.82;;;6.95;;
40867;SDS011;26586;50.708;22.412;2024-01-30T10:28:43;9.47;;;7.47;;
40867;SDS011;26586;50.708;22.412;2024-01-30T10:31:10;10.48;;;8.93;;
40867;SDS011;26586;50.708;22.412;2024-01-30T10:33:36;10.07;;;8.32;;
40867;SDS011;26586;50.708;22.412;2024-01-30T10:36:03;11.15;;;8.73;;
40867;SDS011;26586;50.708;22.412;2024-01-30T10:38:31;11.15;;;8.35;;
40867;SDS011;26586;50.708;22.412;2024-01-30T10:40:59;8.93;;;7.53;;
40867;SDS011;26586;50.708;22.412;2024-01-30T10:43:35;9.55;;;6.95;;
40867;SDS011;26586;50.708;22.412;2024-01-30T10:46:17;9.40;;;7.50;;
40867;SDS011;26586;50.708;22.412;2024-01-30T10:48:46;8.82;;;7.22;;
40867;SDS011;26586;50.708;22.412;2024-01-30T10:51:23;10.38;;;7.13;;
40867;SDS011;26586;50.708;22.412;2024-01-30T10:53:51;10.30;;;6.72;;
40867;SDS011;26586;50.708;22.412;2024-01-30T10:56:21;7.72;;;6.75;;
40867;SDS011;26586;50.708;22.412;2024-01-30T10:58:51;9.05;;;6.30;;
40867;SDS011;26586;50.708;22.412;2024-01-30T11:01:19;7.63;;;6.15;;
40867;SDS011;26586;50.708;22.412;2024-01-30T11:03:51;8.90;;;6.50;;
40867;SDS011;26586;50.708;22.412;2024-01-30T11:06:18;7.85;;;6.35;;
40867;SDS011;26586;50.708;22.412;2024-01-30T11:09:01;7.18;;;6.15;;
40867;SDS011;26586;50.708;22.412;2024-01-30T11:11:29;6.57;;;5.88;;
40867;SDS011;26586;50.708;22.412;2024-01-30T11:13:55;8.10;;;6.20;;
40867;SDS011;26586;50.708;22.412;2024-01-30T11:16:30;10.13;;;6.63;;
40867;SDS011;26586;50.708;22.412;2024-01-30T11:18:59;8.82;;;6.80;;
40867;SDS011;26586;50.708;22.412;2024-01-30T11:21:28;8.63;;;6.45;;
40867;SDS011;26586;50.708;22.412;2024-01-30T11:23:54;8.65;;;6.25;;
40867;SDS011;26586;50.708;22.412;2024-01-30T11:26:23;7.30;;;5.82;;
40867;SDS011;26586;50.708;22.412;2024-01-30T11:28:54;8.65;;;6.32;;
40867;SDS011;26586;50.708;22.412;2024-01-30T11:31:21;10.13;;;8.07;;
40867;SDS011;26586;50.708;22.412;2024-01-30T11:33:47;20.27;;;13.95;;
40867;SDS011;26586;50.708;22.412;2024-01-30T11:36:20;25.10;;;15.57;;
40867;SDS011;26586;50.708;22.412;2024-01-30T11:38:50;18.00;;;11.57;;
40867;SDS011;26586;50.708;22.412;2024-01-30T11:41:17;13.48;;;8.88;;
40867;SDS011;26586;50.708;22.412;2024-01-30T11:43:51;10.13;;;7.35;;
40867;SDS011;26586;50.708;22.412;2024-01-30T11:46:18;8.13;;;6.40;;
40867;SDS011;26586;50.708;22.412;2024-01-30T11:48:45;7.45;;;5.55;;
40867;SDS011;26586;50.708;22.412;2024-01-30T11:51:14;8.40;;;5.70;;
40867;SDS011;26586;50.708;22.412;2024-01-30T11:53:41;9.57;;;7.07;;
40867;SDS011;26586;50.708;22.412;2024-01-30T11:58:34;9.55;;;5.85;;
40867;SDS011;26586;50.708;22.412;2024-01-30T12:01:00;7.57;;;5.43;;
40867;SDS011;26586;50.708;22.412;2024-01-30T12:03:26;6.65;;;4.85;;
40867;SDS011;26586;50.708;22.412;2024-01-30T12:05:57;6.03;;;4.93;;
40867;SDS011;26586;50.708;22.412;2024-01-30T12:08:24;7.70;;;5.13;;
40867;SDS011;26586;50.708;22.412;2024-01-30T12:10:57;7.18;;;4.75;;
40867;SDS011;26586;50.708;22.412;2024-01-30T12:13:30;8.55;;;5.07;;
40867;SDS011;26586;50.708;22.412;2024-01-30T12:15:57;6.07;;;4.95;;
40867;SDS011;26586;50.708;22.412;2024-01-30T12:18:23;11.17;;;10.17;;
40867;SDS011;26586;50.708;22.412;2024-01-30T12:20:57;14.73;;;12.15;;
40867;SDS011;26586;50.708;22.412;2024-01-30T12:23:27;10.73;;;9.05;;
40867;SDS011;26586;50.708;22.412;2024-01-30T12:28:20;12.25;;;10.95;;
40867;SDS011;26586;50.708;22.412;2024-01-30T12:30:46;9.80;;;8.88;;
40867;SDS011;26586;50.708;22.412;2024-01-30T12:33:16;7.95;;;6.45;;
40867;SDS011;26586;50.708;22.412;2024-01-30T12:35:47;8.20;;;5.13;;
40867;SDS011;26586;50.708;22.412;2024-01-30T12:38:16;6.85;;;5.90;;
40867;SDS011;26586;50.708;22.412;2024-01-30T12:40:43;6.53;;;4.32;;
40867;SDS011;26586;50.708;22.412;2024-01-30T12:43:10;7.82;;;6.95;;
40867;SDS011;26586;50.708;22.412;2024-01-30T12:45:36;8.25;;;6.47;;
40867;SDS011;26586;50.708;22.412;2024-01-30T12:48:02;6.95;;;5.50;;
40867;SDS011;26586;50.708;22.412;2024-01-30T12:50:29;8.85;;;5.50;;
40867;SDS011;26586;50.708;22.412;2024-01-30T12:52:55;6.57;;;5.20;;
40867;SDS011;26586;50.708;22.412;2024-01-30T12:55:22;7.22;;;6.22;;
40867;SDS011;26586;50.708;22.412;2024-01-30T12:57:49;11.07;;;8.45;;
40867;SDS011;26586;50.708;22.412;2024-01-30T13:00:15;11.10;;;9.80;;
40867;SDS011;26586;50.708;22.412;2024-01-30T13:02:42;13.93;;;10.15;;
40867;SDS011;26586;50.708;22.412;2024-01-30T13:05:10;9.35;;;7.32;;
40867;SDS011;26586;50.708;22.412;2024-01-30T13:07:36;13.68;;;10.90;;
40867;SDS011;26586;50.708;22.412;2024-01-30T13:10:03;10.70;;;9.15;;
40867;SDS011;26586;50.708;22.412;2024-01-30T13:12:29;14.45;;;11.38;;
40867;SDS011;26586;50.708;22.412;2024-01-30T13:14:57;12.65;;;9.80;;
40867;SDS011;26586;50.708;22.412;2024-01-30T13:17:26;9.38;;;8.32;;
40867;SDS011;26586;50.708;22.412;2024-01-30T13:22:20;8.18;;;6.68;;
40867;SDS011;26586;50.708;22.412;2024-01-30T13:24:49;12.10;;;9.05;;
40867;SDS011;26586;50.708;22.412;2024-01-30T13:27:16;12.13;;;9.23;;
40867;SDS011;26586;50.708;22.412;2024-01-30T13:29:43;9.52;;;8.10;;
40867;SDS011;26586;50.708;22.412;2024-01-30T13:32:09;11.70;;;8.85;;
40867;SDS011;26586;50.708;22.412;2024-01-30T13:34:36;16.10;;;12.55;;
40867;SDS011;26586;50.708;22.412;2024-01-30T13:37:02;20.77;;;17.08;;
40867;SDS011;26586;50.708;22.412;2024-01-30T13:39:28;18.15;;;16.17;;
40867;SDS011;26586;50.708;22.412;2024-01-30T13:41:54;20.35;;;18.35;;
40867;SDS011;26586;50.708;22.412;2024-01-30T13:44:21;14.95;;;13.45;;
40867;SDS011;26586;50.708;22.412;2024-01-30T13:46:47;11.90;;;10.70;;
40867;SDS011;26586;50.708;22.412;2024-01-30T13:49:13;11.38;;;9.38;;
40867;SDS011;26586;50.708;22.412;2024-01-30T13:51:39;10.82;;;9.05;;
40867;SDS011;26586;50.708;22.412;2024-01-30T13:54:06;9.05;;;7.80;;
40867;SDS011;26586;50.708;22.412;2024-01-30T13:56:32;11.43;;;10.30;;
40867;SDS011;26586;50.708;22.412;2024-01-30T13:58:58;11.90;;;10.45;;
40867;SDS011;26586;50.708;22.412;2024-01-30T14:01:26;12.15;;;10.68;;
40867;SDS011;26586;50.708;22.412;2024-01-30T14:03:53;11.38;;;10.27;;
40867;SDS011;26586;50.708;22.412;2024-01-30T14:06:19;11.63;;;10.23;;
40867;SDS011;26586;50.708;22.412;2024-01-30T14:08:45;13.68;;;9.43;;
40867;SDS011;26586;50.708;22.412;2024-01-30T14:11:11;11.18;;;8.55;;
40867;SDS011;26586;50.708;22.412;2024-01-30T14:13:38;9.48;;;8.25;;
40867;SDS011;26586;50.708;22.412;2024-01-30T14:16:04;9.93;;;8.10;;
40867;SDS011;26586;50.708;22.412;2024-01-30T14:18:31;9.30;;;8.30;;
40867;SDS011;26586;50.708;22.412;2024-01-30T14:20:57;13.05;;;8.27;;
40867;SDS011;26586;50.708;22.412;2024-01-30T14:23:23;11.90;;;10.60;;
40867;SDS011;26586;50.708;22.412;2024-01-30T14:25:49;18.92;;;14.95;;
40867;SDS011;26586;50.708;22.412;2024-01-30T14:28:17;20.60;;;17.95;;
40867;SDS011;26586;50.708;22.412;2024-01-30T14:30:43;19.95;;;17.73;;